Time;durP1;ratioP1;P1;durP2;ratioP2;P2;SDS_P1;SDS_P2;PMS_P1;PMS_P2;Temp;Humidity;BMP_temperature;BMP_pressure;BME280_temperature;BME280_humidity;BME280_pressure;Samples;Min_cycle;Max_cycle;Signal;HPM_P1;HPM_P2
2022/07/26 00:00:56;;;;;;;5.23;4.13;;;;;;;18.93;100.00;99483.19;1662942;86;21912;-65
2022/07/26 00:03:24;;;;;;;5.00;3.77;;;;;;;18.98;100.00;99483.77;1662192;85;21168;-57
2022/07/26 00:05:51;;;;;;;5.00;3.73;;;;;;;19.01;100.00;99482.44;1662812;86;21415;-58
2022/07/26 00:08:18;;;;;;;6.80;4.00;;;;;;;18.87;100.00;99475.52;1662890;86;21472;-65
2022/07/26 00:10:48;;;;;;;4.87;4.17;;;;;;;18.82;100.00;99474.95;1662539;86;21025;-57
2022/07/26 00:13:18;;;;;;;4.30;3.70;;;;;;;18.85;100.00;99477.08;1634399;86;20935;-58
2022/07/26 00:15:47;;;;;;;4.67;3.10;;;;;;;18.89;100.00;99476.05;1662760;86;21022;-58
2022/07/26 00:18:14;;;;;;;5.80;3.80;;;;;;;18.82;100.00;99468.88;1663020;86;21148;-61
2022/07/26 00:20:41;;;;;;;5.93;3.50;;;;;;;18.81;100.00;99469.41;1662020;86;21058;-59
2022/07/26 00:23:09;;;;;;;4.10;3.17;;;;;;;18.82;100.00;99472.83;1662415;86;21491;-58
2022/07/26 00:25:36;;;;;;;4.53;3.10;;;;;;;18.79;100.00;99475.98;1662758;86;21098;-57
2022/07/26 00:28:04;;;;;;;5.77;3.47;;;;;;;18.82;100.00;99471.52;1662850;86;21061;-58
2022/07/26 00:30:31;;;;;;;5.23;3.50;;;;;;;18.81;100.00;99473.36;1663509;86;21275;-66
2022/07/26 00:32:58;;;;;;;5.10;3.40;;;;;;;18.69;100.00;99467.46;1662276;86;21069;-58
2022/07/26 00:35:25;;;;;;;4.77;3.20;;;;;;;18.68;100.00;99474.59;1663165;86;21084;-58
2022/07/26 00:37:54;;;;;;;5.93;3.30;;;;;;;18.67;100.00;99470.87;1663540;86;21160;-57
2022/07/26 00:40:22;;;;;;;3.90;3.00;;;;;;;18.63;100.00;99475.07;1663479;86;21041;-60
2022/07/26 00:42:50;;;;;;;3.93;3.10;;;;;;;18.58;100.00;99482.44;1662044;86;21552;-60
2022/07/26 00:45:18;;;;;;;4.33;3.30;;;;;;;18.64;100.00;99477.47;1662744;86;21778;-57
2022/07/26 00:47:45;;;;;;;5.50;3.20;;;;;;;18.63;100.00;99477.19;1663112;86;21080;-57
2022/07/26 00:50:15;;;;;;;4.30;3.40;;;;;;;18.65;100.00;99480.38;1662632;86;21093;-58
2022/07/26 00:52:43;;;;;;;12.83;3.57;;;;;;;18.63;100.00;99471.91;1662503;86;21014;-62
2022/07/26 00:55:10;;;;;;;5.70;3.60;;;;;;;18.65;100.00;99476.95;1662919;86;21512;-57
2022/07/26 00:57:40;;;;;;;4.33;3.50;;;;;;;18.51;100.00;99479.75;1662761;86;20962;-56
2022/07/26 01:00:12;;;;;;;4.73;3.20;;;;;;;18.47;100.00;99484.73;1663536;86;21495;-56
2022/07/26 01:02:39;;;;;;;4.17;2.85;;;;;;;18.42;100.00;99482.87;1662177;86;20962;-65
2022/07/26 01:05:07;;;;;;;4.20;3.10;;;;;;;18.41;100.00;99480.46;1667161;85;21344;-57
2022/07/26 01:07:34;;;;;;;6.13;2.80;;;;;;;18.41;100.00;99482.60;1668714;85;21270;-56
2022/07/26 01:10:04;;;;;;;4.17;3.10;;;;;;;18.42;100.00;99478.12;1668285;85;20922;-56
2022/07/26 01:12:31;;;;;;;3.97;2.83;;;;;;;18.41;100.00;99475.19;1667628;85;21073;-65
2022/07/26 01:14:59;;;;;;;4.57;3.00;;;;;;;18.43;100.00;99474.42;1667247;85;21539;-57
2022/07/26 01:17:26;;;;;;;4.17;2.80;;;;;;;18.41;100.00;99483.10;1667665;85;21470;-57
2022/07/26 01:19:53;;;;;;;3.20;2.70;;;;;;;18.40;100.00;99477.56;1668066;85;21314;-56
2022/07/26 01:22:21;;;;;;;7.27;3.47;;;;;;;18.37;100.00;99475.42;1667648;85;21084;-57
2022/07/26 01:24:48;;;;;;;6.93;3.73;;;;;;;18.28;100.00;99476.42;1667029;85;21834;-64
2022/07/26 01:27:17;;;;;;;5.20;3.50;;;;;;;18.22;100.00;99475.60;1667338;85;21911;-58
2022/07/26 01:29:45;;;;;;;4.53;3.50;;;;;;;18.24;100.00;99476.13;1667644;85;21124;-56
2022/07/26 01:32:13;;;;;;;4.13;3.03;;;;;;;18.20;100.00;99475.05;1666444;85;21168;-59
2022/07/26 01:34:40;;;;;;;4.73;3.60;;;;;;;18.14;100.00;99481.31;1667883;85;21551;-56
2022/07/26 01:37:08;;;;;;;4.70;3.90;;;;;;;18.10;100.00;99476.80;1667661;85;21022;-58
2022/07/26 01:39:36;;;;;;;4.17;3.03;;;;;;;18.04;100.00;99478.61;1667872;85;21084;-57
2022/07/26 01:42:03;;;;;;;4.33;3.63;;;;;;;18.06;100.00;99485.73;1667705;85;21034;-61
2022/07/26 01:44:30;;;;;;;4.60;3.50;;;;;;;18.00;100.00;99489.39;1667359;85;21201;-56
2022/07/26 01:46:58;;;;;;;5.37;3.57;;;;;;;17.96;100.00;99486.98;1667479;85;21649;-63
2022/07/26 01:49:27;;;;;;;5.13;3.43;;;;;;;17.92;100.00;99490.64;1668145;85;21302;-57
2022/07/26 01:51:55;;;;;;;4.87;3.43;;;;;;;17.97;100.00;99484.61;1668038;85;21030;-64
2022/07/26 01:54:22;;;;;;;8.07;4.90;;;;;;;17.93;100.00;99483.52;1667814;85;21058;-56
2022/07/26 01:56:49;;;;;;;4.97;3.60;;;;;;;17.92;100.00;99497.77;1667690;85;21224;-59
2022/07/26 01:59:17;;;;;;;4.80;3.67;;;;;;;17.92;100.00;99502.51;1667347;85;21044;-57
2022/07/26 02:01:45;;;;;;;6.73;4.10;;;;;;;17.96;100.00;99508.08;1667884;85;21136;-59
2022/07/26 02:04:57;;;;;;;4.40;3.50;;;;;;;17.93;100.00;99512.53;1666912;85;21493;-56
2022/07/26 02:06:41;;;;;;;5.67;4.07;;;;;;;17.90;100.00;99512.50;1661305;85;21129;-59
2022/07/26 02:09:08;;;;;;;6.07;4.27;;;;;;;17.91;100.00;99511.97;1662874;86;21228;-62
2022/07/26 02:11:36;;;;;;;5.20;4.40;;;;;;;17.93;100.00;99515.16;1662526;86;21595;-57
2022/07/26 02:14:03;;;;;;;6.23;4.90;;;;;;;17.90;100.00;99516.98;1662371;86;21093;-57
2022/07/26 02:16:30;;;;;;;6.03;4.43;;;;;;;17.90;100.00;99515.13;1663073;86;21431;-57
2022/07/26 02:18:57;;;;;;;4.50;3.80;;;;;;;17.98;100.00;99516.52;1663007;86;21480;-56
2022/07/26 02:21:25;;;;;;;4.97;3.77;;;;;;;18.03;100.00;99520.52;1662505;86;22459;-57
2022/07/26 02:23:52;;;;;;;5.43;4.13;;;;;;;18.03;100.00;99522.36;1662353;86;21358;-59
2022/07/26 02:26:21;;;;;;;5.50;4.43;;;;;;;18.09;100.00;99515.57;1662955;86;21148;-57
2022/07/26 02:28:48;;;;;;;11.53;5.17;;;;;;;18.16;100.00;99518.80;1663013;85;20994;-58
2022/07/26 02:31:15;;;;;;;6.30;4.50;;;;;;;18.10;100.00;99515.84;1662613;86;21101;-57
2022/07/26 02:33:42;;;;;;;4.33;3.80;;;;;;;18.15;100.00;99524.34;1662698;86;21203;-63
2022/07/26 02:36:09;;;;;;;6.07;4.07;;;;;;;18.20;100.00;99523.05;1662336;86;21013;-57
2022/07/26 02:38:36;;;;;;;4.77;4.23;;;;;;;18.24;100.00;99521.50;1662990;86;21542;-57
2022/07/26 02:41:05;;;;;;;5.53;4.43;;;;;;;18.17;100.00;99524.87;1662569;85;21401;-59
2022/07/26 02:43:32;;;;;;;5.63;4.13;;;;;;;18.20;100.00;99523.84;1663035;86;21096;-62
2022/07/26 02:45:59;;;;;;;5.27;3.93;;;;;;;18.32;100.00;99524.20;1662732;86;21235;-56
2022/07/26 02:48:26;;;;;;;6.87;4.30;;;;;;;18.35;100.00;99523.18;1662331;86;21049;-57
2022/07/26 02:50:53;;;;;;;7.07;5.03;;;;;;;18.43;100.00;99526.67;1662394;86;21006;-60
2022/07/26 02:53:20;;;;;;;6.43;4.57;;;;;;;18.48;100.00;99525.38;1662914;85;21864;-56
2022/07/26 02:55:48;;;;;;;5.63;4.60;;;;;;;18.56;100.00;99524.64;1662683;85;21022;-57
2022/07/26 02:58:15;;;;;;;7.80;4.27;;;;;;;18.63;100.00;99526.55;1662819;86;21235;-57
2022/07/26 03:00:42;;;;;;;4.63;4.07;;;;;;;18.85;100.00;99528.57;1663220;86;20982;-63
2022/07/26 03:03:12;;;;;;;7.03;4.70;;;;;;;19.07;100.00;99529.75;1662207;86;21029;-57
2022/07/26 03:05:38;;;;;;;5.67;4.87;;;;;;;19.31;100.00;99526.16;1662918;85;21160;-59
2022/07/26 03:08:06;;;;;;;5.57;4.30;;;;;;;19.49;100.00;99526.23;1662928;86;21017;-59
2022/07/26 03:10:33;;;;;;;5.07;3.80;;;;;;;19.96;100.00;99525.31;1662865;86;22650;-57
2022/07/26 03:13:01;;;;;;;4.73;4.17;;;;;;;20.74;100.00;99514.48;1662114;85;21071;-58
2022/07/26 03:15:28;;;;;;;7.43;4.17;;;;;;;21.36;100.00;99513.77;1662986;86;21669;-57
2022/07/26 03:17:55;;;;;;;5.33;4.57;;;;;;;21.68;100.00;99506.73;1662972;86;21141;-56
2022/07/26 03:20:22;;;;;;;4.30;3.90;;;;;;;22.25;100.00;99499.98;1662988;86;21756;-56
2022/07/26 03:22:49;;;;;;;5.20;3.90;;;;;;;23.26;100.00;99488.06;1662982;86;21307;-58
2022/07/26 03:25:17;;;;;;;7.23;4.03;;;;;;;24.42;100.00;99487.16;1661676;86;21049;-57
2022/07/26 03:27:44;;;;;;;5.50;3.93;;;;;;;25.59;100.00;99478.18;1663081;86;21049;-56
2022/07/26 03:30:12;;;;;;;4.47;4.03;;;;;;;26.55;100.00;99465.47;1663358;86;20999;-57
2022/07/26 03:32:39;;;;;;;5.22;4.50;;;;;;;27.43;100.00;99457.38;1663065;85;21074;-57
2022/07/26 03:35:07;;;;;;;5.45;3.77;;;;;;;28.21;100.00;99454.61;1662103;86;21500;-58
2022/07/26 03:37:34;;;;;;;5.17;3.90;;;;;;;29.06;100.00;99451.13;1662796;86;21431;-57
2022/07/26 03:40:01;;;;;;;5.92;4.00;;;;;;;29.88;100.00;99457.34;1662872;86;21066;-57
2022/07/26 03:42:29;;;;;;;6.28;4.12;;;;;;;30.64;100.00;99452.78;1662648;86;21002;-57
2022/07/26 03:44:57;;;;;;;4.37;3.37;;;;;;;31.23;100.00;99456.33;1661928;86;21026;-56
2022/07/26 03:47:24;;;;;;;6.85;3.50;;;;;;;31.86;100.00;99462.55;1662044;86;21175;-58
2022/07/26 03:49:52;;;;;;;5.15;3.12;;;;;;;32.53;93.32;99466.74;1662821;86;22138;-57
2022/07/26 03:52:19;;;;;;;3.62;3.02;;;;;;;33.08;80.18;99460.89;1662847;86;21066;-58
2022/07/26 03:54:47;;;;;;;4.28;3.30;;;;;;;33.33;74.85;99466.02;1661969;86;21446;-58
2022/07/26 03:57:14;;;;;;;3.83;3.20;;;;;;;33.65;66.39;99462.06;1662136;86;21161;-63
2022/07/26 03:59:41;;;;;;;6.33;4.50;;;;;;;33.87;63.39;99467.87;1662676;86;21332;-56
2022/07/26 04:02:08;;;;;;;5.03;3.65;;;;;;;34.01;61.05;99468.14;1662586;86;20954;-56
2022/07/26 04:04:36;;;;;;;3.90;3.25;;;;;;;34.27;59.99;99468.00;1662314;85;21063;-62
2022/07/26 04:07:03;;;;;;;4.05;3.40;;;;;;;34.66;56.04;99466.51;1662978;86;21044;-57
2022/07/26 04:09:30;;;;;;;4.58;3.37;;;;;;;34.97;54.90;99466.78;1662238;86;21018;-57
2022/07/26 04:11:57;;;;;;;4.53;4.12;;;;;;;35.35;51.72;99476.58;1662943;86;21898;-56
2022/07/26 04:14:24;;;;;;;4.65;4.15;;;;;;;35.58;50.52;99469.71;1662462;86;21277;-58
2022/07/26 04:16:52;;;;;;;4.37;3.92;;;;;;;35.86;48.63;99474.64;1662090;86;20959;-57
2022/07/26 04:19:19;;;;;;;5.42;4.60;;;;;;;36.00;47.83;99468.03;1662471;86;21026;-57
2022/07/26 04:21:47;;;;;;;4.70;4.22;;;;;;;36.24;46.47;99474.05;1663166;86;21171;-56
2022/07/26 04:24:14;;;;;;;4.10;3.70;;;;;;;36.48;45.80;99469.44;1662695;86;21829;-61
2022/07/26 04:26:41;;;;;;;4.65;4.25;;;;;;;36.63;44.69;99469.52;1662463;86;21128;-57
2022/07/26 04:29:08;;;;;;;4.95;4.05;;;;;;;36.71;44.10;99475.19;1662415;86;21068;-63
2022/07/26 04:31:36;;;;;;;4.08;3.67;;;;;;;36.86;43.54;99468.72;1662654;86;21474;-57
2022/07/26 04:34:04;;;;;;;4.42;4.03;;;;;;;37.10;42.87;99471.38;1662884;86;20935;-56
2022/07/26 04:36:31;;;;;;;4.62;3.92;;;;;;;37.14;42.21;99470.05;1662624;86;21262;-61
2022/07/26 04:38:58;;;;;;;4.58;4.17;;;;;;;37.19;42.02;99465.59;1662205;86;21073;-63
2022/07/26 04:41:25;;;;;;;6.30;5.70;;;;;;;37.34;41.58;99469.14;1662924;86;21496;-57
2022/07/26 04:43:55;;;;;;;7.05;6.35;;;;;;;37.54;40.82;99466.91;1662566;86;21027;-57
2022/07/26 04:46:23;;;;;;;9.97;9.07;;;;;;;37.59;40.90;99467.91;1663076;86;20910;-58
2022/07/26 04:48:50;;;;;;;9.10;8.20;;;;;;;37.81;40.27;99468.16;1662023;86;21334;-63
2022/07/26 04:51:18;;;;;;;7.90;7.20;;;;;;;37.98;39.70;99465.27;1662088;86;21490;-57
2022/07/26 04:53:45;;;;;;;6.10;5.25;;;;;;;38.19;39.29;99465.88;1662579;86;21467;-57
2022/07/26 04:56:12;;;;;;;4.90;4.40;;;;;;;38.45;38.04;99462.78;1662921;86;21143;-58
2022/07/26 04:58:39;;;;;;;4.50;4.10;;;;;;;38.45;37.24;99463.34;1662513;85;21473;-59
2022/07/26 05:01:07;;;;;;;4.45;3.90;;;;;;;38.16;37.70;99457.12;1662743;85;21865;-59
2022/07/26 05:03:34;;;;;;;4.28;3.45;;;;;;;38.18;37.20;99453.42;1661961;86;21016;-58
2022/07/26 05:06:01;;;;;;;4.40;4.00;;;;;;;38.14;37.13;99447.97;1665441;85;21139;-58
2022/07/26 05:08:28;;;;;;;3.58;3.27;;;;;;;38.17;37.54;99445.06;1667820;85;21034;-58
2022/07/26 05:10:56;;;;;;;4.72;3.72;;;;;;;38.40;37.50;99449.55;1667906;85;21654;-59
2022/07/26 05:13:23;;;;;;;5.65;5.05;;;;;;;38.76;36.77;99447.36;1667258;85;21393;-59
2022/07/26 05:15:51;;;;;;;4.45;4.05;;;;;;;38.88;36.48;99440.15;1668072;85;21442;-57
2022/07/26 05:18:17;;;;;;;4.20;3.80;;;;;;;38.76;36.17;99444.05;1668227;85;21074;-57
2022/07/26 05:20:44;;;;;;;4.87;4.37;;;;;;;38.76;36.50;99445.41;1668711;85;20997;-57
2022/07/26 05:23:12;;;;;;;4.47;4.08;;;;;;;39.09;36.22;99447.45;1668693;85;21516;-56
2022/07/26 05:25:40;;;;;;;4.00;3.65;;;;;;;39.37;35.54;99447.95;1667552;85;22351;-58
2022/07/26 05:28:08;;;;;;;6.03;5.42;;;;;;;39.62;34.89;99439.61;1668581;85;21493;-57
2022/07/26 05:30:36;;;;;;;5.00;4.50;;;;;;;39.87;34.48;99442.20;1668210;85;21098;-56
2022/07/26 05:33:04;;;;;;;4.67;4.25;;;;;;;40.08;33.93;99433.86;1668177;85;21065;-57
2022/07/26 05:35:31;;;;;;;4.65;4.25;;;;;;;40.24;33.47;99431.22;1667650;85;21622;-57
2022/07/26 05:37:59;;;;;;;4.45;4.05;;;;;;;40.26;33.55;99433.71;1668132;85;22312;-57
2022/07/26 05:40:26;;;;;;;4.83;4.10;;;;;;;40.57;33.02;99434.59;1668230;85;21042;-57
2022/07/26 05:42:53;;;;;;;4.95;4.20;;;;;;;40.84;32.59;99431.18;1668618;85;21092;-57
2022/07/26 05:45:20;;;;;;;4.17;3.85;;;;;;;40.96;32.01;99428.53;1668289;85;21026;-62
2022/07/26 05:47:52;;;;;;;4.87;4.15;;;;;;;40.75;31.73;99426.81;1667885;85;21062;-58
2022/07/26 05:50:19;;;;;;;4.58;4.17;;;;;;;40.50;32.58;99428.41;1668426;85;21552;-57
2022/07/26 05:52:47;;;;;;;5.35;4.85;;;;;;;40.35;32.97;99428.57;1668352;85;21022;-56
2022/07/26 05:55:15;;;;;;;5.15;4.65;;;;;;;40.20;32.84;99430.48;1667973;85;21112;-63
2022/07/26 05:57:44;;;;;;;4.55;4.15;;;;;;;39.70;33.48;99432.19;1667238;85;21034;-63
2022/07/26 06:00:11;;;;;;;4.85;4.37;;;;;;;39.40;33.98;99438.95;1668119;85;21980;-57
2022/07/26 06:02:41;;;;;;;4.87;4.47;;;;;;;39.38;34.01;99432.55;1667871;85;21264;-57
2022/07/26 06:05:09;;;;;;;4.97;4.58;;;;;;;39.29;34.62;99433.58;1668354;85;21029;-63
2022/07/26 06:07:36;;;;;;;5.03;4.45;;;;;;;39.35;34.79;99431.98;1662232;86;21022;-61
2022/07/26 06:10:04;;;;;;;4.75;4.30;;;;;;;39.55;34.08;99432.83;1662517;85;21014;-56
2022/07/26 06:12:31;;;;;;;4.62;4.15;;;;;;;39.64;33.74;99429.09;1663203;86;21129;-57
2022/07/26 06:14:58;;;;;;;4.70;4.30;;;;;;;39.58;33.59;99425.99;1662869;86;21327;-58
2022/07/26 06:17:30;;;;;;;5.25;4.80;;;;;;;39.41;33.89;99429.63;1662174;86;21464;-58
2022/07/26 06:19:56;;;;;;;4.20;3.77;;;;;;;39.14;34.02;99427.98;1662497;86;20970;-58
2022/07/26 06:22:23;;;;;;;4.47;4.08;;;;;;;38.99;34.67;99426.48;1662942;86;21303;-58
2022/07/26 06:24:50;;;;;;;4.60;3.98;;;;;;;38.92;34.72;99428.06;1663048;86;21055;-57
2022/07/26 06:27:19;;;;;;;4.55;4.15;;;;;;;38.99;34.55;99424.54;1662905;86;21825;-56
2022/07/26 06:29:47;;;;;;;4.08;3.65;;;;;;;39.04;34.71;99427.44;1662341;86;21060;-57
2022/07/26 06:32:15;;;;;;;4.17;3.37;;;;;;;39.11;34.35;99421.36;1663155;86;21050;-57
2022/07/26 06:34:42;;;;;;;4.00;3.60;;;;;;;39.22;34.67;99422.68;1663417;86;21031;-57
2022/07/26 06:37:10;;;;;;;4.22;3.85;;;;;;;39.51;34.14;99422.53;1662419;86;21156;-58
2022/07/26 06:39:39;;;;;;;3.62;3.33;;;;;;;39.64;33.80;99418.95;1662423;86;21759;-57
2022/07/26 06:42:08;;;;;;;4.70;3.67;;;;;;;39.62;33.18;99415.06;1663217;86;21047;-58
2022/07/26 06:44:36;;;;;;;3.70;3.35;;;;;;;39.46;33.45;99416.92;1663243;86;21558;-57
2022/07/26 06:47:03;;;;;;;4.72;3.27;;;;;;;39.08;34.04;99425.47;1663317;86;21469;-59
2022/07/26 06:49:30;;;;;;;3.98;3.52;;;;;;;38.58;34.36;99433.78;1662811;86;21092;-56
2022/07/26 06:51:57;;;;;;;4.33;3.47;;;;;;;37.86;34.69;99426.95;1662906;86;21263;-56
2022/07/26 06:54:24;;;;;;;3.35;3.05;;;;;;;37.32;36.94;99432.84;1663021;86;21045;-58
2022/07/26 06:56:51;;;;;;;3.22;2.85;;;;;;;37.31;37.23;99427.19;1662941;85;21480;-63
2022/07/26 06:59:19;;;;;;;3.40;2.87;;;;;;;37.49;37.67;99417.17;1663183;86;20966;-60
2022/07/26 07:01:46;;;;;;;4.05;3.15;;;;;;;37.81;36.78;99422.47;1662926;86;22261;-58
2022/07/26 07:04:13;;;;;;;4.87;3.60;;;;;;;37.86;36.67;99426.95;1662994;86;21223;-57
2022/07/26 07:06:40;;;;;;;4.42;3.25;;;;;;;37.80;36.81;99420.33;1662561;85;20930;-58
2022/07/26 07:09:07;;;;;;;3.50;2.90;;;;;;;37.63;36.59;99421.10;1663252;86;21079;-61
2022/07/26 07:11:34;;;;;;;3.00;2.65;;;;;;;37.00;37.40;99419.13;1662464;86;21575;-58
2022/07/26 07:14:02;;;;;;;3.20;2.90;;;;;;;36.41;38.29;99421.86;1662752;85;21384;-57
2022/07/26 07:16:30;;;;;;;3.15;2.75;;;;;;;35.98;39.37;99427.48;1663007;86;21275;-57
2022/07/26 07:18:57;;;;;;;2.62;2.35;;;;;;;35.82;40.08;99428.50;1662530;86;20920;-59
2022/07/26 07:21:26;;;;;;;6.17;2.90;;;;;;;36.07;40.08;99422.56;1662688;86;21686;-57
2022/07/26 07:23:53;;;;;;;3.08;2.60;;;;;;;36.52;39.42;99421.93;1662198;85;21015;-57
2022/07/26 07:26:20;;;;;;;3.27;2.80;;;;;;;36.99;38.54;99418.34;1662767;86;21085;-57
2022/07/26 07:28:47;;;;;;;4.08;2.58;;;;;;;37.39;37.58;99412.48;1662998;86;21571;-58
2022/07/26 07:31:15;;;;;;;3.47;2.92;;;;;;;37.72;37.14;99416.83;1662309;86;21102;-56
2022/07/26 07:33:42;;;;;;;2.90;2.33;;;;;;;37.85;36.02;99412.39;1662102;85;21347;-58
2022/07/26 07:36:10;;;;;;;2.80;2.45;;;;;;;37.52;35.86;99414.28;1662822;86;21835;-57
2022/07/26 07:38:39;;;;;;;2.87;2.33;;;;;;;37.01;36.32;99421.47;1663017;86;21069;-57
2022/07/26 07:41:07;;;;;;;4.15;2.72;;;;;;;36.82;36.91;99420.36;1662197;86;21205;-59
2022/07/26 07:43:35;;;;;;;3.20;2.50;;;;;;;37.01;36.92;99418.76;1662428;86;21548;-65
2022/07/26 07:46:02;;;;;;;3.05;2.42;;;;;;;37.13;36.08;99424.44;1662662;86;21105;-58
2022/07/26 07:48:29;;;;;;;2.80;2.47;;;;;;;37.23;36.18;99425.03;1662856;86;21121;-59
2022/07/26 07:50:56;;;;;;;3.12;2.40;;;;;;;37.09;36.52;99429.08;1662667;86;21018;-62
2022/07/26 07:53:25;;;;;;;5.00;2.85;;;;;;;36.87;36.92;99430.88;1662242;86;22330;-57
2022/07/26 07:55:52;;;;;;;3.10;2.08;;;;;;;36.92;37.30;99429.15;1662364;86;20986;-58
2022/07/26 07:58:21;;;;;;;3.15;2.20;;;;;;;37.14;36.61;99425.20;1662924;86;21125;-57
2022/07/26 08:00:48;;;;;;;2.60;2.17;;;;;;;37.44;35.97;99426.30;1662694;86;20967;-59
2022/07/26 08:03:15;;;;;;;3.95;2.33;;;;;;;37.70;35.50;99423.84;1662507;86;21552;-58
2022/07/26 08:05:42;;;;;;;2.70;2.37;;;;;;;38.13;36.04;99427.38;1662564;85;21180;-59
2022/07/26 08:08:09;;;;;;;3.90;3.20;;;;;;;38.60;34.83;99425.97;1667434;85;20970;-57
2022/07/26 08:10:36;;;;;;;4.00;2.65;;;;;;;38.84;34.81;99421.09;1667773;85;21017;-57
2022/07/26 08:13:06;;;;;;;4.10;2.77;;;;;;;39.14;34.27;99415.72;1667253;85;21562;-58
2022/07/26 08:15:34;;;;;;;4.70;2.83;;;;;;;39.40;33.98;99411.12;1668217;85;21124;-57
2022/07/26 08:18:01;;;;;;;3.85;2.87;;;;;;;39.78;32.99;99413.22;1666951;85;21268;-58
2022/07/26 08:20:28;;;;;;;2.90;2.60;;;;;;;39.84;32.22;99417.86;1667662;85;21021;-57
2022/07/26 08:22:56;;;;;;;3.30;3.00;;;;;;;39.55;32.67;99417.83;1667847;85;21082;-64
2022/07/26 08:25:23;;;;;;;3.52;2.90;;;;;;;39.00;33.57;99418.50;1667733;85;22218;-56
2022/07/26 08:27:52;;;;;;;3.27;2.98;;;;;;;38.41;33.79;99426.59;1667424;85;20926;-65
2022/07/26 08:30:19;;;;;;;3.08;2.70;;;;;;;37.67;34.15;99430.81;1668314;85;21713;-57
2022/07/26 08:32:46;;;;;;;3.45;2.83;;;;;;;37.36;35.49;99417.32;1667620;85;21328;-63
2022/07/26 08:35:14;;;;;;;3.87;3.35;;;;;;;37.35;36.28;99419.82;1667601;85;21010;-57
2022/07/26 08:37:41;;;;;;;3.47;3.10;;;;;;;37.28;36.28;99418.47;1667661;85;21052;-58
2022/07/26 08:40:09;;;;;;;3.77;3.37;;;;;;;37.15;36.44;99419.96;1667092;85;21026;-58
2022/07/26 08:42:36;;;;;;;4.70;3.17;;;;;;;37.09;36.79;99412.77;1667709;85;21157;-57
2022/07/26 08:45:04;;;;;;;4.85;3.25;;;;;;;37.12;36.94;99416.64;1667184;85;21507;-60
2022/07/26 08:47:31;;;;;;;4.03;3.55;;;;;;;37.23;36.57;99409.31;1667768;85;22026;-56
2022/07/26 08:49:58;;;;;;;4.42;3.30;;;;;;;37.21;36.88;99403.49;1640851;85;21500;-57
2022/07/26 08:52:25;;;;;;;4.75;3.67;;;;;;;37.15;36.96;99407.73;1667493;85;21059;-58
2022/07/26 08:54:55;;;;;;;3.50;2.87;;;;;;;36.96;36.59;99405.52;1667960;85;39981;-57
2022/07/26 08:57:24;;;;;;;3.72;3.33;;;;;;;36.71;36.88;99411.38;1667350;85;21591;-57
2022/07/26 09:00:22;;;;;;;3.37;3.02;;;;;;;36.44;37.25;99403.44;1668191;85;21021;-57
2022/07/26 09:02:51;;;;;;;4.17;3.77;;;;;;;36.30;38.06;99404.72;1667235;85;21026;-57
2022/07/26 09:05:22;;;;;;;5.08;3.80;;;;;;;36.12;38.93;99397.02;1667546;85;21084;-56
2022/07/26 09:07:51;;;;;;;5.12;3.70;;;;;;;35.63;39.44;99402.17;1663451;85;21457;-58
2022/07/26 09:10:20;;;;;;;5.05;3.42;;;;;;;35.04;40.84;99405.39;1662956;86;21364;-56
2022/07/26 09:12:56;;;;;;;5.58;3.47;;;;;;;34.42;42.19;99404.08;1662380;86;20990;-57
2022/07/26 09:15:29;;;;;;;4.80;4.30;;;;;;;33.92;44.12;99406.73;1662906;86;21027;-57
2022/07/26 09:17:58;;;;;;;4.90;4.20;;;;;;;33.53;45.32;99402.78;1662558;86;21456;-57
2022/07/26 09:20:28;;;;;;;4.80;3.95;;;;;;;33.10;46.49;99401.89;1662292;86;21251;-56
2022/07/26 09:23:12;;;;;;;6.72;3.95;;;;;;;32.69;48.12;99404.65;1662657;86;21726;-58
2022/07/26 09:25:43;;;;;;;4.42;4.00;;;;;;;32.38;50.27;99406.24;1662546;86;20986;-64
2022/07/26 09:28:29;;;;;;;5.53;4.55;;;;;;;31.96;53.48;99410.81;1662768;86;21081;-56
2022/07/26 09:31:00;;;;;;;5.22;4.72;;;;;;;31.64;57.76;99411.32;1662530;86;21074;-64
2022/07/26 09:33:48;;;;;;;5.42;4.90;;;;;;;31.33;62.49;99413.91;1662667;86;21164;-64
2022/07/26 09:36:16;;;;;;;5.60;4.67;;;;;;;31.14;70.21;99426.08;1662726;86;21089;-56
2022/07/26 09:38:49;;;;;;;5.85;4.62;;;;;;;30.83;77.24;99427.23;1662644;86;21070;-58
2022/07/26 09:41:34;;;;;;;6.40;5.03;;;;;;;30.81;84.43;99426.81;1662563;86;21538;-58
2022/07/26 09:44:08;;;;;;;6.30;4.90;;;;;;;30.87;85.04;99426.78;1653122;86;21061;-56
2022/07/26 09:46:36;;;;;;;7.92;4.83;;;;;;;30.84;83.31;99420.73;1660105;86;21552;-63
2022/07/26 09:49:18;;;;;;;6.60;4.58;;;;;;;30.77;83.47;99420.75;1633567;86;21109;-58
2022/07/26 09:51:47;;;;;;;5.45;4.33;;;;;;;30.59;85.38;99423.42;1662713;86;21002;-58
2022/07/26 09:54:32;;;;;;;4.87;4.37;;;;;;;30.54;87.77;99422.31;1662839;86;20990;-57
2022/07/26 09:56:59;;;;;;;5.72;4.65;;;;;;;30.75;89.70;99427.59;1662496;86;21500;-58
2022/07/26 09:59:27;;;;;;;8.35;4.92;;;;;;;31.30;84.67;99414.59;1662975;86;21857;-58
2022/07/26 10:01:56;;;;;;;5.10;4.15;;;;;;;31.71;69.95;99396.69;1662875;86;21579;-56
2022/07/26 10:04:23;;;;;;;4.10;3.70;;;;;;;31.94;72.74;99396.92;1662413;86;21085;-57
2022/07/26 10:06:51;;;;;;;5.25;4.08;;;;;;;32.07;66.52;99404.34;1663259;85;21042;-56
2022/07/26 10:09:19;;;;;;;4.67;4.12;;;;;;;32.01;68.83;99404.38;1662229;86;21082;-65
2022/07/26 10:11:57;;;;;;;5.97;5.25;;;;;;;31.78;67.38;99404.72;1662811;86;21665;-58
2022/07/26 10:14:48;;;;;;;4.97;4.47;;;;;;;31.44;71.35;99406.91;1662626;86;21614;-56
2022/07/26 10:17:39;;;;;;;4.90;4.35;;;;;;;30.97;77.54;99406.14;1662482;86;21456;-58
2022/07/26 10:20:32;;;;;;;4.90;4.33;;;;;;;30.66;81.62;99418.27;1662606;86;21467;-58
2022/07/26 10:22:59;;;;;;;5.30;4.80;;;;;;;30.27;91.44;99411.11;1662888;85;20998;-58
2022/07/26 10:25:45;;;;;;;5.78;5.17;;;;;;;30.26;96.41;99402.80;1662586;86;21384;-58
2022/07/26 10:28:20;;;;;;;6.33;5.05;;;;;;;30.39;97.93;99397.45;1662504;86;21531;-58
2022/07/26 10:30:48;;;;;;;6.47;4.75;;;;;;;30.49;96.74;99395.06;1662305;85;20993;-64
2022/07/26 10:33:16;;;;;;;5.00;4.05;;;;;;;30.57;96.30;99400.10;1662622;86;21543;-58
2022/07/26 10:35:44;;;;;;;4.62;4.17;;;;;;;30.61;96.94;99402.37;1662706;85;21041;-57
2022/07/26 10:38:25;;;;;;;5.50;4.05;;;;;;;30.66;92.82;99402.12;1662482;86;21160;-59
2022/07/26 10:41:01;;;;;;;4.05;3.60;;;;;;;30.75;91.76;99388.01;1662039;86;21065;-58
2022/07/26 10:43:28;;;;;;;4.20;3.80;;;;;;;30.72;90.79;99391.37;1663124;86;21514;-57
2022/07/26 10:46:22;;;;;;;6.97;4.60;;;;;;;30.58;94.22;99403.04;1662395;85;20990;-58
2022/07/26 10:49:06;;;;;;;4.72;3.85;;;;;;;30.34;99.99;99401.68;1662923;85;21160;-57
2022/07/26 10:51:35;;;;;;;6.08;3.60;;;;;;;30.01;100.00;99409.25;1663018;86;21822;-58
2022/07/26 10:54:10;;;;;;;4.10;3.70;;;;;;;29.85;100.00;99401.58;1662634;86;20891;-65
2022/07/26 10:56:37;;;;;;;4.42;3.85;;;;;;;29.69;100.00;99403.56;1662393;85;21267;-59
2022/07/26 10:59:04;;;;;;;4.85;3.50;;;;;;;29.59;100.00;99398.63;1662070;86;21074;-57
2022/07/26 11:01:37;;;;;;;4.97;3.33;;;;;;;29.49;100.00;99405.14;1662904;86;21148;-57
2022/07/26 11:04:06;;;;;;;4.85;3.60;;;;;;;29.39;100.00;99402.08;1662033;85;21264;-62
2022/07/26 11:06:33;;;;;;;5.33;3.10;;;;;;;29.22;100.00;99390.38;1662743;86;22031;-59
2022/07/26 11:09:09;;;;;;;3.77;3.10;;;;;;;29.04;100.00;99393.75;1662188;85;21560;-59
2022/07/26 11:11:36;;;;;;;3.05;2.70;;;;;;;29.06;100.00;99386.73;1662950;86;21536;-58
2022/07/26 11:14:07;;;;;;;3.77;2.90;;;;;;;29.44;100.00;99383.87;1662271;86;20990;-57
2022/07/26 11:16:43;;;;;;;4.05;2.95;;;;;;;30.10;100.00;99381.70;1662948;85;21754;-57
2022/07/26 11:19:16;;;;;;;2.85;2.40;;;;;;;30.63;96.04;99375.12;1662663;86;21544;-57
2022/07/26 11:21:45;;;;;;;6.00;2.58;;;;;;;30.74;84.97;99377.03;1662218;85;21053;-58
2022/07/26 11:24:13;;;;;;;3.40;2.50;;;;;;;30.73;83.07;99380.05;1662675;86;21978;-57
2022/07/26 11:26:44;;;;;;;3.87;2.17;;;;;;;30.96;86.97;99372.28;1662157;86;20950;-62
2022/07/26 11:29:12;;;;;;;3.10;2.10;;;;;;;31.39;84.21;99379.66;1662770;86;21247;-58
2022/07/26 11:31:44;;;;;;;3.50;2.47;;;;;;;31.43;66.48;99376.50;1662202;86;21056;-63
2022/07/26 11:34:21;;;;;;;2.77;2.00;;;;;;;31.21;62.21;99387.22;1662588;86;21028;-60
2022/07/26 11:36:49;;;;;;;3.50;1.95;;;;;;;30.77;63.66;99397.11;1662809;86;21057;-58